createdAt,value
2023-04-27T00:01:14.875Z,7.80
2023-04-27T00:03:43.029Z,7.80
2023-04-27T00:06:10.666Z,7.90
2023-04-27T00:08:38.019Z,8.60
2023-04-27T00:13:33.161Z,7.60
2023-04-27T00:16:03.509Z,7.80
2023-04-27T00:18:31.268Z,7.80
2023-04-27T00:20:58.970Z,7.80
2023-04-27T00:23:27.388Z,8.00
2023-04-27T00:25:54.640Z,7.60
2023-04-27T00:28:22.012Z,7.50
2023-04-27T00:30:49.386Z,7.50
2023-04-27T00:33:17.212Z,7.60
2023-04-27T00:35:44.467Z,7.70
2023-04-27T00:38:12.256Z,8.30
2023-04-27T00:40:40.461Z,7.60
2023-04-27T00:43:09.211Z,7.40
2023-04-27T00:45:45.713Z,7.60
2023-04-27T00:48:13.790Z,7.50
2023-04-27T00:50:41.419Z,8.10
2023-04-27T00:53:08.826Z,8.20
2023-04-27T00:55:37.645Z,7.60
2023-04-27T00:58:04.901Z,7.40
2023-04-27T01:00:32.427Z,7.20
2023-04-27T01:03:01.930Z,7.50
2023-04-27T01:05:31.989Z,7.30
2023-04-27T01:10:28.472Z,7.30
2023-04-27T01:12:56.219Z,7.10
2023-04-27T01:15:23.729Z,7.10
2023-04-27T01:18:01.410Z,8.70
2023-04-27T01:20:33.020Z,7.10
2023-04-27T01:23:00.366Z,7.00
2023-04-27T01:25:27.733Z,6.80
2023-04-27T01:27:55.047Z,6.80
2023-04-27T01:30:22.684Z,6.90
2023-04-27T01:32:50.483Z,6.30
2023-04-27T01:35:20.013Z,6.70
2023-04-27T01:37:47.610Z,6.90
2023-04-27T01:40:15.417Z,6.70
2023-04-27T01:42:42.777Z,6.70
2023-04-27T01:45:11.105Z,6.60
2023-04-27T01:47:38.516Z,6.60
2023-04-27T01:50:07.529Z,6.60
2023-04-27T01:55:04.248Z,6.70
2023-04-27T01:57:31.892Z,6.90
2023-04-27T01:59:59.353Z,6.70
2023-04-27T02:02:26.828Z,6.60
2023-04-27T02:04:54.428Z,6.50
2023-04-27T02:07:21.988Z,6.70
2023-04-27T02:12:17.817Z,6.60
2023-04-27T02:14:45.147Z,6.40
2023-04-27T02:17:12.522Z,6.80
2023-04-27T02:19:40.122Z,6.50
2023-04-27T02:22:07.484Z,7.10
2023-04-27T02:24:36.509Z,6.80
2023-04-27T02:27:03.860Z,6.50
2023-04-27T02:29:31.969Z,6.50
2023-04-27T02:31:59.815Z,6.50
2023-04-27T02:36:54.921Z,6.60
2023-04-27T02:39:22.165Z,6.90
2023-04-27T02:41:49.547Z,6.60
2023-04-27T02:46:44.705Z,8.70
2023-04-27T02:49:12.115Z,6.30
2023-04-27T02:51:39.433Z,6.20
2023-04-27T02:54:06.758Z,7.40
2023-04-27T02:56:34.153Z,6.20
2023-04-27T02:59:01.530Z,6.10
2023-04-27T03:01:28.907Z,6.60
2023-04-27T03:03:56.577Z,6.30
2023-04-27T03:06:24.116Z,6.00
2023-04-27T03:08:51.440Z,6.00
2023-04-27T03:11:18.758Z,5.90
2023-04-27T03:13:46.221Z,7.60
2023-04-27T03:18:42.429Z,6.00
2023-04-27T03:21:10.990Z,5.90
2023-04-27T03:23:38.561Z,6.20
2023-04-27T03:26:13.557Z,5.80
2023-04-27T03:28:42.230Z,6.10
2023-04-27T03:31:11.462Z,6.00
2023-04-27T03:36:08.598Z,6.00
2023-04-27T03:38:36.200Z,5.80
2023-04-27T03:41:04.047Z,7.10
2023-04-27T03:43:31.396Z,6.90
2023-04-27T03:45:58.835Z,5.90
2023-04-27T03:48:27.207Z,5.90
2023-04-27T03:50:56.074Z,7.10
2023-04-27T03:53:23.528Z,7.10
2023-04-27T03:55:51.821Z,6.20
2023-04-27T04:01:05.272Z,5.70
2023-04-27T04:03:32.735Z,6.20
2023-04-27T04:06:00.234Z,4.70
2023-04-27T04:08:27.450Z,5.90
2023-04-27T04:10:56.208Z,5.70
2023-04-27T04:13:24.140Z,5.40
2023-04-27T04:16:03.021Z,6.20
2023-04-27T04:20:58.385Z,5.70
2023-04-27T04:23:26.927Z,6.20
2023-04-27T04:25:58.538Z,5.60
2023-04-27T04:28:30.886Z,5.90
2023-04-27T04:30:59.686Z,5.90
2023-04-27T04:33:27.384Z,7.10
2023-04-27T04:35:56.387Z,5.60
2023-04-27T04:38:23.803Z,5.70
2023-04-27T04:40:52.888Z,5.80
2023-04-27T04:43:20.175Z,5.90
2023-04-27T04:45:48.171Z,5.80
2023-04-27T04:48:16.504Z,5.90
2023-04-27T04:50:46.106Z,6.10
2023-04-27T04:55:42.554Z,5.80
2023-04-27T04:58:11.014Z,5.90
2023-04-27T05:00:38.467Z,5.80
2023-04-27T05:03:07.929Z,6.10
2023-04-27T05:05:35.536Z,7.40
2023-04-27T05:08:02.896Z,6.00
2023-04-27T05:10:30.163Z,5.90
2023-04-27T05:12:57.872Z,6.00
2023-04-27T05:15:25.260Z,6.60
2023-04-27T05:25:17.503Z,6.40
2023-04-27T05:27:44.776Z,6.40
2023-04-27T05:30:12.952Z,5.10
2023-04-27T05:35:08.306Z,6.60
2023-04-27T05:37:35.653Z,6.60
2023-04-27T05:42:33.364Z,6.70
2023-04-27T05:45:00.882Z,6.70
2023-04-27T05:47:28.149Z,6.80
2023-04-27T05:49:55.511Z,6.70
2023-04-27T05:52:29.359Z,7.00
2023-04-27T05:54:58.389Z,7.20
2023-04-27T05:57:27.056Z,7.70
2023-04-27T05:59:54.468Z,8.10
2023-04-27T06:02:23.084Z,8.10
2023-04-27T06:04:50.705Z,7.40
2023-04-27T06:07:18.095Z,8.40
2023-04-27T06:09:46.321Z,7.90
2023-04-27T06:12:13.668Z,7.60
2023-04-27T06:14:41.233Z,8.20
2023-04-27T06:17:08.616Z,8.00
2023-04-27T06:19:36.873Z,8.00
2023-04-27T06:22:04.197Z,8.00
2023-04-27T06:24:31.548Z,8.50
2023-04-27T06:26:58.816Z,8.60
2023-04-27T06:34:21.855Z,8.70
2023-04-27T06:36:49.184Z,9.10
2023-04-27T06:39:16.686Z,8.90
2023-04-27T06:41:44.205Z,8.90
2023-04-27T06:44:19.355Z,9.10
2023-04-27T06:46:46.913Z,9.40
2023-04-27T06:49:14.456Z,9.30
2023-04-27T06:51:42.076Z,9.30
2023-04-27T06:54:09.841Z,9.50
2023-04-27T06:56:37.138Z,9.90
2023-04-27T06:59:04.728Z,9.90
2023-04-27T07:01:32.463Z,9.70
2023-04-27T07:04:00.061Z,9.70
2023-04-27T07:06:28.715Z,9.60
2023-04-27T07:08:56.114Z,9.90
2023-04-27T07:11:23.729Z,10.80
2023-04-27T07:13:51.356Z,9.90
2023-04-27T07:16:19.579Z,10.20
2023-04-27T07:18:47.123Z,10.70
2023-04-27T07:21:15.429Z,10.00
2023-04-27T07:23:42.870Z,10.10
2023-04-27T07:26:10.468Z,10.80
2023-04-27T07:28:39.135Z,10.40
2023-04-27T07:31:06.815Z,10.50
2023-04-27T07:33:35.357Z,10.30
2023-04-27T07:36:05.427Z,10.50
2023-04-27T07:38:32.814Z,10.40
2023-04-27T07:41:04.543Z,10.80
2023-04-27T07:43:32.452Z,10.90
2023-04-27T07:45:59.844Z,10.70
2023-04-27T07:48:28.778Z,10.80
2023-04-27T07:50:56.294Z,11.00
2023-04-27T07:53:24.001Z,10.90
2023-04-27T07:55:51.575Z,11.00
2023-04-27T07:58:19.980Z,11.10
2023-04-27T08:00:47.654Z,11.40
2023-04-27T08:03:15.261Z,11.60
2023-04-27T08:05:43.167Z,11.30
2023-04-27T08:08:11.335Z,11.30
2023-04-27T08:10:39.556Z,11.70
2023-04-27T08:13:10.033Z,11.60
2023-04-27T08:15:37.633Z,11.60
2023-04-27T08:18:05.142Z,11.70
2023-04-27T08:20:32.471Z,11.40
2023-04-27T08:23:00.051Z,12.40
2023-04-27T08:25:27.353Z,11.80
2023-04-27T08:27:54.725Z,12.10
2023-04-27T08:30:22.220Z,13.00
2023-04-27T08:32:49.915Z,12.00
2023-04-27T08:35:17.695Z,12.10
2023-04-27T08:37:45.012Z,12.10
2023-04-27T08:40:13.242Z,12.10
2023-04-27T08:42:53.400Z,12.10
2023-04-27T08:45:20.867Z,12.10
2023-04-27T08:47:48.293Z,12.10
2023-04-27T08:50:15.778Z,13.00
2023-04-27T08:52:47.171Z,12.30
2023-04-27T08:55:16.706Z,12.40
2023-04-27T08:57:54.965Z,12.50
2023-04-27T09:00:23.702Z,13.00
2023-04-27T09:02:51.563Z,12.70
2023-04-27T09:05:21.893Z,13.10
2023-04-27T09:07:58.427Z,12.90
2023-04-27T09:10:26.345Z,13.10
2023-04-27T09:13:01.200Z,13.10
2023-04-27T09:15:29.303Z,13.80
2023-04-27T09:17:57.720Z,13.10
2023-04-27T09:20:27.215Z,13.30
2023-04-27T09:22:56.164Z,13.80
2023-04-27T09:25:31.901Z,13.60
2023-04-27T09:28:00.971Z,13.70
2023-04-27T09:30:29.698Z,13.90
2023-04-27T09:32:59.330Z,14.00
2023-04-27T09:35:30.276Z,14.50
2023-04-27T09:37:59.075Z,15.00
2023-04-27T09:40:31.243Z,14.60
2023-04-27T09:43:01.882Z,14.40
2023-04-27T09:45:30.707Z,14.30
2023-04-27T09:47:58.852Z,14.40
2023-04-27T09:50:26.658Z,15.60
2023-04-27T09:55:26.120Z,14.50
2023-04-27T09:57:57.183Z,14.50
2023-04-27T10:00:29.357Z,14.60
2023-04-27T10:03:04.835Z,14.70
2023-04-27T10:05:51.515Z,14.70
2023-04-27T10:08:20.000Z,15.20
2023-04-27T10:10:49.118Z,15.90
2023-04-27T10:13:26.398Z,15.10
2023-04-27T10:15:53.904Z,15.40
2023-04-27T10:18:31.339Z,15.40
2023-04-27T10:21:10.460Z,16.20
2023-04-27T10:23:50.720Z,15.50
2023-04-27T10:26:25.528Z,15.80
2023-04-27T10:29:07.492Z,15.70
2023-04-27T10:31:35.807Z,15.70
2023-04-27T10:34:11.312Z,15.60
2023-04-27T10:36:40.878Z,15.70
2023-04-27T10:39:39.708Z,16.70
2023-04-27T10:42:13.861Z,16.00
2023-04-27T10:44:41.245Z,16.00
2023-04-27T10:47:16.724Z,16.00
2023-04-27T10:49:44.101Z,16.40
2023-04-27T10:52:11.656Z,16.70
2023-04-27T10:54:39.782Z,17.00
2023-04-27T10:57:10.974Z,17.40
2023-04-27T10:59:52.807Z,18.60
2023-04-27T11:02:27.890Z,17.00
2023-04-27T11:04:56.674Z,17.20
2023-04-27T11:07:26.203Z,17.40
2023-04-27T11:09:54.058Z,17.40
2023-04-27T11:12:22.074Z,17.40
2023-04-27T11:14:49.408Z,17.30
2023-04-27T11:17:16.809Z,17.40
2023-04-27T11:19:47.911Z,17.40
2023-04-27T11:22:19.149Z,17.40
2023-04-27T11:24:49.352Z,17.20
2023-04-27T11:27:17.982Z,17.20
2023-04-27T11:29:45.636Z,17.10
2023-04-27T11:32:23.406Z,17.00
2023-04-27T11:34:53.569Z,17.00
2023-04-27T11:37:26.485Z,16.80
2023-04-27T11:39:55.483Z,17.00
2023-04-27T11:42:25.073Z,16.60
2023-04-27T11:45:02.438Z,16.50
2023-04-27T11:47:36.303Z,16.40
2023-04-27T11:50:08.309Z,16.20
2023-04-27T11:52:39.083Z,16.10
2023-04-27T11:55:09.122Z,16.00
2023-04-27T11:57:36.858Z,15.90
2023-04-27T12:00:14.278Z,15.90
2023-04-27T12:02:43.376Z,16.00
2023-04-27T12:05:13.528Z,16.00
2023-04-27T12:07:41.588Z,16.00
2023-04-27T12:10:09.525Z,16.10
2023-04-27T12:12:36.877Z,16.20
2023-04-27T12:15:04.918Z,16.30
2023-04-27T12:17:33.322Z,16.50
2023-04-27T12:20:00.634Z,16.60
2023-04-27T12:22:28.857Z,16.60
2023-04-27T12:24:57.644Z,16.60
2023-04-27T12:27:26.458Z,16.70
2023-04-27T12:29:54.581Z,16.70
2023-04-27T12:32:22.283Z,16.50
2023-04-27T12:34:49.564Z,16.40
2023-04-27T12:37:17.132Z,16.40
2023-04-27T12:39:45.615Z,16.50
2023-04-27T12:42:13.147Z,16.70
2023-04-27T12:44:41.375Z,17.00
2023-04-27T12:47:09.299Z,17.20
2023-04-27T12:49:36.783Z,17.50
2023-04-27T12:52:04.346Z,17.90
2023-04-27T12:54:31.850Z,18.30
2023-04-27T12:57:02.910Z,18.60
2023-04-27T12:59:30.222Z,18.60
2023-04-27T13:01:57.553Z,18.50
2023-04-27T13:04:25.148Z,18.30
2023-04-27T13:06:52.827Z,18.00
2023-04-27T13:09:20.418Z,17.70
2023-04-27T13:11:47.811Z,17.60
2023-04-27T13:14:15.339Z,17.50
2023-04-27T13:16:43.081Z,17.30
2023-04-27T13:19:10.496Z,17.30
2023-04-27T13:21:38.367Z,17.10
2023-04-27T13:24:06.456Z,16.90
2023-04-27T13:26:34.193Z,16.80
2023-04-27T13:29:04.675Z,16.70
2023-04-27T13:31:33.311Z,17.80
2023-04-27T13:36:28.785Z,16.50
2023-04-27T13:38:56.886Z,16.40
2023-04-27T13:41:24.170Z,16.40
2023-04-27T13:43:51.481Z,16.50
2023-04-27T13:46:19.091Z,16.10
2023-04-27T13:48:46.430Z,16.30
2023-04-27T13:51:13.761Z,15.60
2023-04-27T13:53:41.339Z,15.50
2023-04-27T13:56:08.680Z,15.30
2023-04-27T13:58:37.044Z,15.30
2023-04-27T14:01:04.688Z,15.40
2023-04-27T14:03:33.778Z,15.20
2023-04-27T14:06:01.821Z,15.20
2023-04-27T14:08:29.170Z,16.90
2023-04-27T14:13:24.531Z,14.50
2023-04-27T14:15:51.892Z,15.20
2023-04-27T14:18:19.423Z,14.70
2023-04-27T14:20:46.889Z,14.60
2023-04-27T14:23:14.563Z,14.50
2023-04-27T14:25:42.032Z,14.40
2023-04-27T14:28:10.762Z,14.40
2023-04-27T14:30:39.454Z,14.30
2023-04-27T14:33:06.877Z,14.30
2023-04-27T14:35:34.984Z,14.20
2023-04-27T14:38:02.696Z,14.20
2023-04-27T14:40:33.437Z,14.10
2023-04-27T14:43:00.857Z,14.10
2023-04-27T14:45:36.748Z,14.10
2023-04-27T14:48:07.774Z,15.00
2023-04-27T14:50:35.991Z,14.30
2023-04-27T14:53:03.463Z,14.10
2023-04-27T14:55:31.541Z,14.20
2023-04-27T14:57:58.921Z,14.40
2023-04-27T15:00:26.287Z,14.50
2023-04-27T15:02:55.251Z,14.10
2023-04-27T15:05:22.828Z,14.10
2023-04-27T15:07:50.290Z,14.10
2023-04-27T15:10:17.750Z,14.20
2023-04-27T15:12:45.925Z,14.20
2023-04-27T15:15:13.521Z,14.40
2023-04-27T15:17:41.710Z,14.20
2023-04-27T15:20:10.775Z,14.30
2023-04-27T15:22:38.133Z,14.20
2023-04-27T15:25:05.811Z,14.20
2023-04-27T15:30:03.854Z,14.10
2023-04-27T15:32:31.718Z,14.10
2023-04-27T15:34:59.461Z,14.10
2023-04-27T15:37:28.189Z,14.10
2023-04-27T15:39:56.459Z,14.20
2023-04-27T15:42:24.201Z,14.60
2023-04-27T15:44:52.124Z,14.10
2023-04-27T15:47:19.488Z,14.10
2023-04-27T15:49:57.000Z,14.10
2023-04-27T15:52:27.176Z,14.50
2023-04-27T15:54:55.201Z,14.10
2023-04-27T15:57:22.780Z,14.10
2023-04-27T15:59:50.224Z,13.90
2023-04-27T16:02:18.921Z,13.70
2023-04-27T16:04:48.144Z,14.10
2023-04-27T16:07:15.649Z,14.10
2023-04-27T16:09:43.187Z,13.70
2023-04-27T16:12:10.800Z,14.00
2023-04-27T16:14:38.518Z,13.50
2023-04-27T16:17:06.744Z,14.80
2023-04-27T16:19:34.194Z,13.70
2023-04-27T16:22:01.673Z,13.40
2023-04-27T16:24:30.468Z,13.30
2023-04-27T16:26:58.547Z,14.70
2023-04-27T16:29:26.071Z,13.20
2023-04-27T16:31:53.661Z,13.30
2023-04-27T16:34:21.090Z,13.00
2023-04-27T16:36:49.798Z,13.10
2023-04-27T16:39:19.441Z,14.60
2023-04-27T16:41:47.956Z,13.90
2023-04-27T16:44:15.775Z,13.00
2023-04-27T16:46:43.402Z,13.30
2023-04-27T16:49:10.870Z,13.60
2023-04-27T16:51:38.204Z,12.50
2023-04-27T16:54:05.984Z,12.70
2023-04-27T16:56:35.346Z,12.60
2023-04-27T16:59:05.090Z,12.70
2023-04-27T17:01:32.612Z,12.60
2023-04-27T17:04:03.622Z,11.90
2023-04-27T17:06:31.194Z,12.20
2023-04-27T17:08:58.851Z,12.30
2023-04-27T17:11:26.526Z,12.20
2023-04-27T17:13:54.167Z,12.30
2023-04-27T17:16:21.888Z,12.20
2023-04-27T17:18:49.541Z,13.10
2023-04-27T17:21:19.291Z,12.80
2023-04-27T17:23:46.690Z,12.20
2023-04-27T17:26:16.009Z,12.40
2023-04-27T17:28:43.494Z,12.30
2023-04-27T17:31:10.951Z,12.20
2023-04-27T17:33:39.278Z,12.10
2023-04-27T17:36:07.524Z,12.10
2023-04-27T17:38:37.124Z,12.10
2023-04-27T17:41:04.719Z,12.10
2023-04-27T17:43:32.386Z,12.10
2023-04-27T17:45:59.879Z,13.70
2023-04-27T17:48:27.253Z,11.80
2023-04-27T17:50:54.770Z,11.90
2023-04-27T17:53:22.198Z,11.80
2023-04-27T17:55:49.698Z,11.20
2023-04-27T17:58:17.202Z,11.50
2023-04-27T18:00:44.960Z,12.30
2023-04-27T18:03:12.606Z,11.40
2023-04-27T18:05:40.053Z,11.80
2023-04-27T18:08:07.669Z,12.50
2023-04-27T18:10:35.007Z,11.60
2023-04-27T18:13:02.461Z,11.90
2023-04-27T18:15:30.035Z,12.30
2023-04-27T18:17:58.105Z,11.40
2023-04-27T18:20:27.331Z,11.60
2023-04-27T18:22:55.770Z,11.40
2023-04-27T18:25:24.311Z,11.60
2023-04-27T18:27:55.541Z,11.70
2023-04-27T18:30:23.366Z,11.40
2023-04-27T18:32:52.235Z,11.60
2023-04-27T18:35:19.764Z,12.00
2023-04-27T18:37:49.085Z,11.90
2023-04-27T18:40:19.026Z,11.70
2023-04-27T18:42:46.794Z,11.40
2023-04-27T18:45:14.320Z,11.40
2023-04-27T18:47:41.792Z,11.50
2023-04-27T18:50:10.027Z,11.50
2023-04-27T18:52:37.451Z,11.60
2023-04-27T18:55:06.419Z,11.80
2023-04-27T18:57:33.760Z,11.60
2023-04-27T19:00:02.014Z,13.30
2023-04-27T19:02:29.593Z,11.70
2023-04-27T19:05:11.300Z,11.50
2023-04-27T19:07:40.292Z,11.60
2023-04-27T19:10:08.293Z,11.50
2023-04-27T19:12:35.928Z,11.40
2023-04-27T19:15:03.952Z,11.40
2023-04-27T19:17:31.396Z,11.50
2023-04-27T19:19:58.979Z,11.60
2023-04-27T19:22:28.356Z,11.40
2023-04-27T19:24:56.116Z,11.40
2023-04-27T19:27:23.534Z,11.40
2023-04-27T19:29:53.165Z,11.40
2023-04-27T19:32:21.814Z,11.50
2023-04-27T19:34:49.401Z,11.30
2023-04-27T19:37:16.923Z,13.00
2023-04-27T19:39:44.319Z,11.30
2023-04-27T19:42:11.664Z,11.30
2023-04-27T19:44:39.123Z,12.10
2023-04-27T19:47:06.755Z,11.70
2023-04-27T19:49:34.288Z,12.70
2023-04-27T19:52:01.698Z,11.40
2023-04-27T19:54:29.237Z,11.50
2023-04-27T19:56:56.852Z,11.30
2023-04-27T19:59:24.278Z,11.40
2023-04-27T20:01:51.990Z,10.90
2023-04-27T20:04:20.776Z,10.90
2023-04-27T20:06:50.135Z,10.70
2023-04-27T20:09:18.721Z,11.10
2023-04-27T20:11:46.340Z,11.10
2023-04-27T20:14:14.147Z,11.10
2023-04-27T20:16:41.911Z,11.40
2023-04-27T20:19:10.842Z,11.10
2023-04-27T20:21:38.790Z,10.90
2023-04-27T20:24:07.364Z,10.90
2023-04-27T20:26:34.731Z,10.90
2023-04-27T20:29:02.234Z,11.60
2023-04-27T20:31:29.866Z,11.40
2023-04-27T20:33:57.217Z,10.90
2023-04-27T20:36:24.860Z,10.80
2023-04-27T20:38:52.416Z,10.90
2023-04-27T20:41:21.447Z,11.00
2023-04-27T20:43:48.784Z,11.00
2023-04-27T20:46:16.545Z,11.70
2023-04-27T20:48:45.022Z,11.80
2023-04-27T20:51:12.932Z,11.30
2023-04-27T20:53:40.689Z,11.50
2023-04-27T20:56:08.978Z,11.20
2023-04-27T20:58:36.276Z,11.40
2023-04-27T21:01:04.091Z,11.10
2023-04-27T21:03:31.638Z,11.20
2023-04-27T21:05:59.246Z,11.30
2023-04-27T21:08:28.093Z,11.50
2023-04-27T21:10:57.077Z,11.20
2023-04-27T21:13:25.558Z,11.00
2023-04-27T21:15:54.405Z,12.70
2023-04-27T21:18:29.792Z,11.30
2023-04-27T21:20:58.186Z,11.40
2023-04-27T21:23:25.730Z,11.20
2023-04-27T21:25:53.284Z,11.50
2023-04-27T21:28:21.550Z,11.50
2023-04-27T21:30:50.329Z,11.40
2023-04-27T21:33:18.113Z,11.50
2023-04-27T21:35:45.749Z,12.60
2023-04-27T21:38:13.180Z,11.50
2023-04-27T21:40:40.734Z,13.70
2023-04-27T21:43:08.141Z,13.00
2023-04-27T21:45:36.068Z,11.50
2023-04-27T21:48:03.674Z,11.40
2023-04-27T21:50:31.198Z,11.60
2023-04-27T21:52:58.658Z,11.70
2023-04-27T21:55:26.109Z,11.80
2023-04-27T21:57:53.695Z,12.80
2023-04-27T22:00:21.137Z,12.00
2023-04-27T22:02:51.007Z,11.70
2023-04-27T22:05:20.977Z,11.80
2023-04-27T22:07:48.413Z,11.70
2023-04-27T22:10:15.905Z,11.80
2023-04-27T22:12:43.553Z,11.50
2023-04-27T22:15:11.260Z,11.90
2023-04-27T22:17:39.827Z,11.50
2023-04-27T22:20:11.295Z,11.80
2023-04-27T22:22:38.754Z,11.80
2023-04-27T22:25:07.542Z,11.70
2023-04-27T22:27:42.117Z,11.80
2023-04-27T22:30:12.412Z,11.80
2023-04-27T22:32:39.861Z,11.80
2023-04-27T22:35:24.711Z,12.10
2023-04-27T22:37:55.911Z,11.80
2023-04-27T22:40:23.543Z,11.90
2023-04-27T22:42:52.360Z,11.80
2023-04-27T22:45:19.764Z,13.20
2023-04-27T22:47:47.296Z,12.20
2023-04-27T22:50:15.330Z,11.80
2023-04-27T22:52:43.166Z,11.50
2023-04-27T22:55:11.946Z,11.90
2023-04-27T22:57:40.278Z,12.20
2023-04-27T23:00:11.965Z,11.90
2023-04-27T23:02:41.544Z,11.90
2023-04-27T23:05:10.889Z,12.40
2023-04-27T23:07:41.011Z,12.10
2023-04-27T23:10:09.038Z,11.90
2023-04-27T23:12:37.816Z,11.90
2023-04-27T23:15:05.668Z,11.90
2023-04-27T23:17:33.328Z,12.00
2023-04-27T23:20:02.197Z,13.50
2023-04-27T23:22:30.720Z,12.30
2023-04-27T23:24:58.000Z,12.00
2023-04-27T23:27:25.318Z,12.60
2023-04-27T23:29:52.792Z,12.00
2023-04-27T23:32:20.832Z,12.20
2023-04-27T23:34:48.298Z,12.10
2023-04-27T23:37:17.209Z,12.60
2023-04-27T23:39:44.660Z,12.10
2023-04-27T23:42:12.070Z,12.10
2023-04-27T23:44:40.966Z,12.10
2023-04-27T23:47:08.705Z,12.70
2023-04-27T23:49:36.149Z,13.30
2023-04-27T23:52:03.660Z,12.10
2023-04-27T23:54:32.461Z,12.20
2023-04-27T23:56:59.927Z,12.40
2023-04-27T23:59:27.349Z,12.10
